createdAt,value
2023-05-14T00:00:12.374Z,83.6334
2023-05-14T00:01:13.148Z,83.6397
2023-05-14T00:02:13.849Z,83.6412
2023-05-14T00:03:16.053Z,83.6453
2023-05-14T00:04:16.231Z,83.6459
2023-05-14T00:05:16.911Z,83.6380
2023-05-14T00:06:16.933Z,83.6325
2023-05-14T00:07:17.592Z,83.6272
2023-05-14T00:08:18.297Z,83.6168
2023-05-14T00:10:18.542Z,83.5782
2023-05-14T00:11:18.551Z,83.5557
2023-05-14T00:12:18.603Z,83.5391
2023-05-14T00:13:18.634Z,83.5199
2023-05-14T00:15:19.474Z,83.4961
2023-05-14T00:16:19.558Z,83.4937
2023-05-14T00:18:20.520Z,83.5022
2023-05-14T00:19:41.551Z,83.4975
2023-05-14T00:20:23.020Z,83.4884
2023-05-14T00:21:23.943Z,83.4399
2023-05-14T00:22:24.582Z,83.3870
2023-05-14T00:23:24.636Z,83.3202
2023-05-14T00:24:25.314Z,83.2441
2023-05-14T00:25:25.372Z,83.1644
2023-05-14T00:26:25.401Z,83.0829
2023-05-14T00:27:26.033Z,83.0054
2023-05-14T00:28:26.078Z,82.9143
2023-05-14T00:29:26.121Z,82.8187
2023-05-14T00:30:26.190Z,82.7134
2023-05-14T00:31:26.883Z,82.6067
2023-05-14T00:32:26.914Z,82.4988
2023-05-14T00:33:27.767Z,82.4025
2023-05-14T00:34:28.450Z,82.3229
2023-05-14T00:35:28.484Z,82.2677
2023-05-14T00:36:29.073Z,82.2109
2023-05-14T00:37:30.061Z,82.1594
2023-05-14T00:38:30.090Z,82.1148
2023-05-14T00:39:30.891Z,82.0817
2023-05-14T00:40:31.988Z,82.0647
2023-05-14T00:41:32.053Z,82.0639
2023-05-14T00:42:32.697Z,82.0816
2023-05-14T00:43:33.650Z,82.1054
2023-05-14T00:45:36.901Z,82.1322
2023-05-14T00:46:37.883Z,82.1456
2023-05-14T00:47:37.947Z,82.1586
2023-05-14T00:48:38.767Z,82.1817
2023-05-14T00:49:38.742Z,82.2092
2023-05-14T00:50:39.472Z,82.2436
2023-05-14T00:51:40.612Z,82.2860
2023-05-14T00:52:41.344Z,82.3457
2023-05-14T00:53:41.404Z,82.3984
2023-05-14T00:54:41.430Z,82.4486
2023-05-14T00:55:41.495Z,82.5055
2023-05-14T00:56:42.077Z,82.5806
2023-05-14T00:57:43.029Z,82.6685
2023-05-14T00:58:43.061Z,82.7496
2023-05-14T00:59:43.138Z,82.8291
2023-05-14T01:00:43.267Z,82.8998
2023-05-14T01:01:43.957Z,82.9657
2023-05-14T01:02:44.065Z,83.0320
2023-05-14T01:03:44.245Z,83.0938
2023-05-14T01:04:44.968Z,83.1535
2023-05-14T01:05:44.985Z,83.2145
2023-05-14T01:06:45.664Z,83.2840
2023-05-14T01:07:46.334Z,83.3550
2023-05-14T01:08:47.057Z,83.4209
2023-05-14T01:09:47.101Z,83.4937
2023-05-14T01:10:47.155Z,83.5659
2023-05-14T01:11:47.864Z,83.6305
2023-05-14T01:12:47.908Z,83.6976
2023-05-14T01:13:48.993Z,83.7606
2023-05-14T01:14:49.930Z,83.8261
2023-05-14T01:15:49.954Z,83.8797
2023-05-14T01:16:50.081Z,83.9311
2023-05-14T01:17:50.158Z,83.9794
2023-05-14T01:18:50.266Z,84.0209
2023-05-14T01:19:50.341Z,84.0635
2023-05-14T01:20:50.384Z,84.0993
2023-05-14T01:21:50.427Z,84.1337
2023-05-14T01:22:50.452Z,84.1678
2023-05-14T01:23:50.523Z,84.2151
2023-05-14T01:24:50.558Z,84.2496
2023-05-14T01:25:50.578Z,84.2836
2023-05-14T01:26:50.626Z,84.3168
2023-05-14T01:27:51.006Z,84.3496
2023-05-14T01:28:51.104Z,84.3807
2023-05-14T01:29:51.114Z,84.4073
2023-05-14T01:30:51.774Z,84.4311
2023-05-14T01:31:51.833Z,84.4536
2023-05-14T01:32:52.482Z,84.4718
2023-05-14T01:33:53.307Z,84.4908
2023-05-14T01:34:53.612Z,84.5138
2023-05-14T01:35:54.356Z,84.5322
2023-05-14T01:36:54.699Z,84.5516
2023-05-14T01:37:54.739Z,84.5675
2023-05-14T01:38:55.926Z,84.5883
2023-05-14T01:39:55.998Z,84.6084
2023-05-14T01:40:56.426Z,84.6249
2023-05-14T01:41:57.187Z,84.6433
2023-05-14T01:42:57.253Z,84.6631
2023-05-14T01:43:58.066Z,84.6769
2023-05-14T01:44:58.764Z,84.6955
2023-05-14T01:45:58.816Z,84.7076
2023-05-14T01:46:59.492Z,84.7175
2023-05-14T01:48:00.796Z,84.7247
2023-05-14T01:49:00.856Z,84.7389
2023-05-14T01:50:01.491Z,84.7489
2023-05-14T01:51:01.692Z,84.7523
2023-05-14T01:53:02.982Z,84.7658
2023-05-14T01:54:03.008Z,84.7773
2023-05-14T01:55:03.691Z,84.7827
2023-05-14T01:56:04.302Z,84.7936
2023-05-14T01:57:05.063Z,84.8079
2023-05-14T01:58:06.556Z,84.8210
2023-05-14T01:59:06.597Z,84.8345
2023-05-14T02:00:07.258Z,84.8539
2023-05-14T02:01:08.603Z,84.8877
2023-05-14T02:07:13.546Z,85.0205
2023-05-14T02:08:13.583Z,85.0204
2023-05-14T02:09:13.612Z,85.0191
2023-05-14T02:10:14.243Z,85.0138
2023-05-14T02:11:14.280Z,85.0063
2023-05-14T02:13:15.142Z,84.9970
2023-05-14T02:14:16.276Z,84.9907
2023-05-14T02:19:23.936Z,84.9421
2023-05-14T02:20:24.624Z,84.9290
2023-05-14T02:21:25.189Z,84.9093
2023-05-14T02:22:26.039Z,84.8801
2023-05-14T02:23:37.983Z,84.8524
2023-05-14T02:24:26.703Z,84.8302
2023-05-14T02:25:27.548Z,84.7991
2023-05-14T02:26:28.218Z,84.7752
2023-05-14T02:27:28.671Z,84.7579
2023-05-14T02:28:29.322Z,84.7442
2023-05-14T02:29:29.424Z,84.7301
2023-05-14T02:30:29.817Z,84.7285
2023-05-14T02:31:30.898Z,84.7260
2023-05-14T02:32:31.250Z,84.7503
2023-05-14T02:33:32.452Z,84.7919
2023-05-14T02:34:33.484Z,84.8459
2023-05-14T02:35:33.559Z,84.8858
2023-05-14T02:36:34.404Z,84.9193
2023-05-14T02:37:35.630Z,84.9260
2023-05-14T02:38:35.692Z,84.9106
2023-05-14T02:39:36.361Z,84.8852
2023-05-14T02:40:36.504Z,84.8483
2023-05-14T02:41:37.933Z,84.8101
2023-05-14T02:42:38.856Z,84.7686
2023-05-14T02:43:38.911Z,84.7227
2023-05-14T02:44:40.416Z,84.6695
2023-05-14T02:45:41.169Z,84.6089
2023-05-14T02:46:41.616Z,84.5393
2023-05-14T02:47:42.607Z,84.4557
2023-05-14T02:48:43.785Z,84.3720
2023-05-14T02:49:43.835Z,84.2883
2023-05-14T02:50:44.703Z,84.2051
2023-05-14T02:51:44.968Z,84.1365
2023-05-14T02:52:45.109Z,84.0910
2023-05-14T02:53:45.344Z,84.0607
2023-05-14T02:54:46.420Z,84.0349
2023-05-14T02:55:46.513Z,84.0306
2023-05-14T02:56:47.375Z,84.0395
2023-05-14T02:57:47.633Z,84.0584
2023-05-14T02:59:48.268Z,84.1158
2023-05-14T03:00:48.854Z,84.1529
2023-05-14T03:01:50.400Z,84.2033
2023-05-14T03:02:51.124Z,84.2498
2023-05-14T03:03:51.883Z,84.2966
2023-05-14T03:04:52.717Z,84.3438
2023-05-14T03:05:52.927Z,84.3975
2023-05-14T03:06:53.575Z,84.5545
2023-05-14T03:07:54.526Z,84.7207
2023-05-14T03:08:54.754Z,84.8384
2023-05-14T03:09:55.512Z,84.9251
2023-05-14T03:10:56.327Z,85.0037
2023-05-14T03:11:56.779Z,85.0755
2023-05-14T03:12:57.638Z,85.1378
2023-05-14T03:13:57.693Z,85.1714
2023-05-14T03:14:58.998Z,85.1989
2023-05-14T03:15:59.939Z,85.2047
2023-05-14T03:17:00.841Z,85.2016
2023-05-14T03:18:01.123Z,85.1866
2023-05-14T03:19:01.322Z,85.1611
2023-05-14T03:20:01.968Z,85.1217
2023-05-14T03:21:02.824Z,85.0704
2023-05-14T03:22:02.882Z,85.0185
2023-05-14T03:23:03.139Z,84.9583
2023-05-14T03:24:03.375Z,84.8838
2023-05-14T03:25:04.249Z,84.7912
2023-05-14T03:26:04.576Z,84.6825
2023-05-14T03:27:04.638Z,84.5554
2023-05-14T03:28:05.461Z,84.4117
2023-05-14T03:29:05.516Z,84.2534
2023-05-14T03:30:06.770Z,84.0753
2023-05-14T03:31:07.569Z,83.9019
2023-05-14T03:32:08.279Z,83.7405
2023-05-14T03:33:09.108Z,83.5840
2023-05-14T03:34:09.205Z,83.4320
2023-05-14T03:35:10.782Z,83.3002
2023-05-14T03:36:11.754Z,83.1681
2023-05-14T03:38:13.236Z,82.9463
2023-05-14T03:39:13.713Z,82.8543
2023-05-14T03:40:14.969Z,82.7823
2023-05-14T03:41:16.007Z,82.7234
2023-05-14T03:42:16.889Z,82.7038
2023-05-14T03:43:17.005Z,82.7241
2023-05-14T03:44:17.965Z,82.8348
2023-05-14T03:45:19.574Z,82.9597
2023-05-14T03:46:21.521Z,83.0410
2023-05-14T03:48:25.359Z,83.1125
2023-05-14T03:49:25.491Z,83.1474
2023-05-14T03:50:26.347Z,83.1670
2023-05-14T03:51:27.113Z,83.1991
2023-05-14T03:52:27.155Z,83.2554
2023-05-14T03:53:27.887Z,83.3233
2023-05-14T03:54:28.499Z,83.4041
2023-05-14T03:55:28.603Z,83.4944
2023-05-14T03:56:29.768Z,83.5801
2023-05-14T03:57:30.411Z,83.6695
2023-05-14T03:58:30.501Z,83.7525
2023-05-14T03:59:31.841Z,83.8277
2023-05-14T04:00:32.932Z,83.9135
2023-05-14T04:01:32.999Z,83.9983
2023-05-14T04:02:33.805Z,84.0820
2023-05-14T04:03:34.094Z,84.1626
2023-05-14T04:04:35.447Z,84.2321
2023-05-14T04:05:35.554Z,84.2985
2023-05-14T04:06:35.624Z,84.3669
2023-05-14T04:07:36.405Z,84.4335
2023-05-14T04:08:37.237Z,84.4906
2023-05-14T04:09:37.961Z,84.5473
2023-05-14T04:10:38.071Z,84.6051
2023-05-14T04:11:38.145Z,84.6603
2023-05-14T04:12:38.906Z,84.7085
2023-05-14T04:13:39.461Z,84.7582
2023-05-14T04:14:39.553Z,84.8116
2023-05-14T04:15:40.558Z,84.8690
2023-05-14T04:16:40.750Z,84.9324
2023-05-14T04:17:41.249Z,84.9940
2023-05-14T04:18:41.984Z,85.0685
2023-05-14T04:19:42.738Z,85.1455
2023-05-14T04:25:47.636Z,85.6526
2023-05-14T04:26:48.467Z,85.7285
2023-05-14T04:27:49.145Z,85.7981
2023-05-14T04:28:49.227Z,85.8677
2023-05-14T04:29:49.953Z,85.9277
2023-05-14T04:30:50.850Z,85.9841
2023-05-14T04:31:50.962Z,86.0381
2023-05-14T04:32:51.697Z,86.0941
2023-05-14T04:33:51.778Z,86.1401
2023-05-14T04:34:52.458Z,86.1803
2023-05-14T04:35:52.596Z,86.2202
2023-05-14T04:36:53.346Z,86.2550
2023-05-14T04:37:54.193Z,86.2894
2023-05-14T04:38:54.843Z,86.3218
2023-05-14T04:39:55.730Z,86.3509
2023-05-14T04:40:56.475Z,86.3822
2023-05-14T04:41:56.571Z,86.4090
2023-05-14T04:42:57.249Z,86.4347
2023-05-14T04:43:57.932Z,86.4544
2023-05-14T04:44:57.994Z,86.4788
2023-05-14T04:45:58.962Z,86.4996
2023-05-14T04:46:59.714Z,86.5244
2023-05-14T04:47:59.836Z,86.5429
2023-05-14T04:49:00.611Z,86.5671
2023-05-14T04:50:00.689Z,86.5964
2023-05-14T04:57:07.497Z,86.7827
2023-05-14T04:58:07.625Z,86.8070
2023-05-14T04:59:07.959Z,86.8376
2023-05-14T05:00:08.060Z,86.8688
2023-05-14T05:01:08.251Z,86.9048
2023-05-14T05:02:08.322Z,86.9495
2023-05-14T05:03:09.086Z,86.9893
2023-05-14T05:04:09.358Z,87.0254
2023-05-14T05:05:09.941Z,87.0563
2023-05-14T05:06:10.905Z,87.0835
2023-05-14T05:07:10.978Z,87.1063
2023-05-14T05:08:11.745Z,87.1242
2023-05-14T05:09:12.523Z,87.1303
2023-05-14T05:11:16.133Z,87.1267
2023-05-14T05:12:16.897Z,87.1241
2023-05-14T05:13:18.267Z,87.1255
2023-05-14T05:14:18.356Z,87.1287
2023-05-14T05:15:18.419Z,87.1249
2023-05-14T05:16:18.694Z,87.1280
2023-05-14T05:17:18.789Z,87.1342
2023-05-14T05:18:18.878Z,87.1402
2023-05-14T05:19:20.844Z,87.1450
2023-05-14T05:20:19.797Z,87.1560
2023-05-14T05:21:20.363Z,87.1566
2023-05-14T05:22:20.420Z,87.1594
2023-05-14T05:23:21.645Z,87.1654
2023-05-14T05:24:22.382Z,87.1690
2023-05-14T05:25:23.776Z,87.1694
2023-05-14T05:26:23.842Z,87.1696
2023-05-14T05:27:24.542Z,87.1718
2023-05-14T05:28:24.709Z,87.1685
2023-05-14T05:29:25.373Z,87.1674
2023-05-14T05:30:26.254Z,87.1745
2023-05-14T05:31:26.457Z,87.1778
2023-05-14T05:32:27.234Z,87.1872
2023-05-14T05:33:27.286Z,87.1925
2023-05-14T05:34:28.075Z,87.1997
2023-05-14T05:35:28.973Z,87.2022
2023-05-14T05:36:29.079Z,87.2019
2023-05-14T05:37:30.087Z,87.1911
2023-05-14T05:38:30.189Z,87.1738
2023-05-14T05:39:30.266Z,87.1631
2023-05-14T05:40:30.402Z,87.1577
2023-05-14T05:41:30.460Z,87.1612
2023-05-14T05:42:30.866Z,87.1601
2023-05-14T05:43:31.000Z,87.1641
2023-05-14T05:44:31.107Z,87.1643
2023-05-14T05:45:31.793Z,87.1703
2023-05-14T05:46:31.950Z,87.1671
2023-05-14T05:47:32.654Z,87.1638
2023-05-14T05:48:33.309Z,87.1557
2023-05-14T05:49:33.599Z,87.1472
2023-05-14T05:50:34.329Z,87.1306
2023-05-14T05:51:35.070Z,87.1132
2023-05-14T05:52:35.777Z,87.0948
2023-05-14T05:53:35.865Z,87.0744
2023-05-14T05:54:36.627Z,87.0495
2023-05-14T05:55:37.468Z,87.0234
2023-05-14T05:56:37.553Z,86.9977
2023-05-14T05:57:37.641Z,86.9780
2023-05-14T05:58:37.980Z,86.9610
2023-05-14T05:59:38.090Z,86.9521
2023-05-14T06:00:39.076Z,86.9550
2023-05-14T06:01:40.286Z,86.9617
2023-05-14T06:03:45.268Z,86.9878
2023-05-14T06:04:44.990Z,87.0014
2023-05-14T06:05:45.210Z,87.0208
2023-05-14T06:06:45.958Z,87.0443
2023-05-14T06:07:46.692Z,87.0768
2023-05-14T06:09:46.895Z,87.1361
2023-05-14T06:10:47.634Z,87.1563
2023-05-14T06:27:15.538Z,87.3761
2023-05-14T06:28:16.231Z,87.4207
2023-05-14T06:29:17.034Z,87.4641
2023-05-14T06:31:20.477Z,87.5521
2023-05-14T06:32:21.403Z,87.5841
2023-05-14T06:33:21.586Z,87.6052
2023-05-14T06:34:22.282Z,87.6242
2023-05-14T06:35:23.002Z,87.6359
2023-05-14T06:38:26.354Z,87.6781
2023-05-14T06:39:27.021Z,87.7056
2023-05-14T06:40:27.786Z,87.7307
2023-05-14T06:41:27.848Z,87.7614
2023-05-14T06:42:27.941Z,87.7954
2023-05-14T06:43:45.739Z,87.8241
2023-05-14T06:44:29.610Z,87.8821
2023-05-14T06:45:33.189Z,87.9015
2023-05-14T06:46:33.415Z,87.9282
2023-05-14T06:47:34.267Z,87.9550
2023-05-14T06:48:35.174Z,87.9917
2023-05-14T06:50:35.806Z,88.0706
2023-05-14T06:52:37.487Z,88.1290
2023-05-14T07:03:11.796Z,88.1540
2023-05-14T07:03:53.650Z,88.1411
2023-05-14T07:04:54.187Z,88.1196
2023-05-14T07:05:54.382Z,88.1070
2023-05-14T07:06:55.078Z,88.1112
2023-05-14T07:07:55.220Z,88.1250
2023-05-14T07:08:55.897Z,88.1431
2023-05-14T07:09:56.678Z,88.1608
2023-05-14T07:10:56.759Z,88.1861
2023-05-14T07:11:56.840Z,88.2088
2023-05-14T07:12:57.514Z,88.2289
2023-05-14T07:13:58.249Z,88.2446
2023-05-14T07:14:58.367Z,88.2627
2023-05-14T07:15:58.466Z,88.2806
2023-05-14T07:16:58.639Z,88.3036
2023-05-14T07:17:59.423Z,88.3159
2023-05-14T07:18:59.557Z,88.3217
2023-05-14T07:20:00.294Z,88.3190
2023-05-14T07:21:00.427Z,88.3143
2023-05-14T07:22:01.155Z,88.3111
2023-05-14T07:23:01.233Z,88.2986
2023-05-14T07:24:01.315Z,88.2706
2023-05-14T07:25:02.123Z,88.2402
2023-05-14T07:26:02.209Z,88.2128
2023-05-14T07:27:03.009Z,88.1926
2023-05-14T07:28:03.739Z,88.1718
2023-05-14T07:29:04.594Z,88.1504
2023-05-14T07:31:05.947Z,88.0787
2023-05-14T07:32:06.034Z,88.0210
2023-05-14T07:33:06.813Z,87.9674
2023-05-14T07:34:07.707Z,87.9059
2023-05-14T07:35:07.830Z,87.8198
2023-05-14T07:36:08.546Z,87.7354
2023-05-14T07:37:08.626Z,87.6741
2023-05-14T07:38:09.422Z,87.6104
2023-05-14T07:39:09.512Z,87.5653
2023-05-14T07:40:10.290Z,87.5306
2023-05-14T07:41:10.409Z,87.4942
2023-05-14T07:42:10.448Z,87.4667
2023-05-14T07:43:10.544Z,87.4559
2023-05-14T07:44:10.640Z,87.4310
2023-05-14T07:45:10.932Z,87.3788
2023-05-14T07:46:11.105Z,87.3015
2023-05-14T07:47:11.704Z,87.2036
2023-05-14T07:48:12.186Z,87.0764
2023-05-14T07:49:13.092Z,86.9332
2023-05-14T07:50:14.341Z,86.8170
2023-05-14T07:51:16.186Z,86.6811
2023-05-14T07:52:23.281Z,86.5515
2023-05-14T08:00:28.678Z,85.0892
2023-05-14T08:01:28.870Z,84.9722
2023-05-14T08:02:29.016Z,84.9275
2023-05-14T08:03:42.442Z,84.8895
2023-05-14T08:04:31.708Z,84.8406
2023-05-14T08:05:31.786Z,84.7780
2023-05-14T08:06:32.517Z,84.7079
2023-05-14T08:07:35.159Z,84.6135
2023-05-14T08:08:35.259Z,84.4980
2023-05-14T08:09:35.336Z,84.4151
2023-05-14T08:10:36.187Z,84.3782
2023-05-14T08:11:36.332Z,84.3653
2023-05-14T08:12:36.444Z,84.3475
2023-05-14T08:13:37.206Z,84.3069
2023-05-14T08:14:38.063Z,84.2213
2023-05-14T08:15:38.155Z,84.1651
2023-05-14T08:16:38.887Z,84.1168
2023-05-14T08:17:39.045Z,84.0918
2023-05-14T08:19:40.555Z,84.0991
2023-05-14T08:20:40.640Z,84.0764
2023-05-14T08:21:41.484Z,84.0360
2023-05-14T08:22:41.578Z,83.9320
2023-05-14T08:23:42.554Z,83.7990
2023-05-14T08:24:42.654Z,83.6932
2023-05-14T08:25:42.802Z,83.5754
2023-05-14T08:26:42.866Z,83.4957
2023-05-14T08:27:42.983Z,83.4550
2023-05-14T08:28:43.931Z,83.4572
2023-05-14T08:29:44.030Z,83.4477
2023-05-14T08:30:44.801Z,83.3571
2023-05-14T08:31:44.875Z,83.1914
2023-05-14T08:32:45.579Z,82.9910
2023-05-14T08:33:47.035Z,82.8537
2023-05-14T08:34:48.510Z,82.7642
2023-05-14T08:35:49.252Z,82.7442
2023-05-14T08:36:53.667Z,82.7903
2023-05-14T08:40:54.148Z,83.1878
2023-05-14T08:41:55.161Z,83.2659
2023-05-14T08:42:55.497Z,83.3118
2023-05-14T08:43:56.504Z,83.3429
2023-05-14T08:44:56.840Z,83.3744
2023-05-14T08:45:57.664Z,83.4007
2023-05-14T08:46:58.555Z,83.4125
2023-05-14T08:47:59.656Z,83.4331
2023-05-14T08:49:00.579Z,83.4225
2023-05-14T08:50:01.559Z,83.3941
2023-05-14T08:51:02.149Z,83.3483
2023-05-14T08:52:03.603Z,83.2424
2023-05-14T08:53:03.748Z,83.0210
2023-05-14T08:54:05.585Z,82.8031
2023-05-14T08:55:06.607Z,82.6649
2023-05-14T08:56:07.013Z,82.5989
2023-05-14T08:57:07.157Z,82.5592
2023-05-14T08:58:20.974Z,82.5400
2023-05-14T08:59:21.082Z,82.4911
2023-05-14T09:00:21.316Z,82.3101
2023-05-14T09:01:21.734Z,82.0847
2023-05-14T09:02:22.847Z,81.6761
2023-05-14T09:03:23.349Z,81.3829
2023-05-14T09:04:23.544Z,81.0524
2023-05-14T09:05:24.482Z,80.6640
2023-05-14T09:06:24.765Z,80.1943
2023-05-14T09:07:25.273Z,79.8215
2023-05-14T09:08:28.866Z,79.3722
2023-05-14T09:13:32.857Z,78.2440
2023-05-14T09:14:33.006Z,78.1321
2023-05-14T09:15:33.964Z,77.8416
2023-05-14T09:16:34.747Z,77.6964
2023-05-14T09:17:35.426Z,77.6714
2023-05-14T09:18:36.223Z,77.6749
2023-05-14T09:19:36.327Z,77.7196
2023-05-14T09:20:37.074Z,77.7748
2023-05-14T09:21:37.203Z,77.7585
2023-05-14T09:22:58.334Z,77.7378
2023-05-14T09:23:40.532Z,77.6225
2023-05-14T09:24:41.022Z,77.5290
2023-05-14T09:25:41.869Z,77.4859
2023-05-14T09:26:41.994Z,77.5536
2023-05-14T09:27:42.118Z,77.7061
2023-05-14T09:28:42.236Z,77.7402
2023-05-14T09:29:42.406Z,77.6968
2023-05-14T09:30:42.558Z,77.7212
2023-05-14T09:31:43.501Z,77.7996
2023-05-14T09:32:44.399Z,77.5912
2023-05-14T09:33:44.889Z,77.2958
2023-05-14T09:34:45.466Z,77.2077
2023-05-14T09:35:45.661Z,77.3415
2023-05-14T09:36:46.378Z,77.5256
2023-05-14T09:37:46.673Z,77.8070
2023-05-14T09:38:46.935Z,78.1366
2023-05-14T09:39:47.831Z,78.4287
2023-05-14T09:40:48.181Z,78.5435
2023-05-14T09:41:48.302Z,78.5219
2023-05-14T09:42:48.990Z,78.5816
2023-05-14T09:43:49.922Z,78.7196
2023-05-14T09:45:50.709Z,78.9674
2023-05-14T09:46:51.458Z,78.9776
2023-05-14T09:48:51.962Z,78.9345
2023-05-14T09:49:52.095Z,78.7486
2023-05-14T09:50:52.426Z,78.6461
2023-05-14T09:51:53.299Z,78.4818
2023-05-14T09:52:54.120Z,78.3272
2023-05-14T09:53:54.466Z,78.2081
2023-05-14T09:54:55.454Z,78.0544
2023-05-14T09:55:55.663Z,77.9226
2023-05-14T09:56:55.962Z,77.8732
2023-05-14T09:57:57.150Z,77.8503
2023-05-14T09:58:57.274Z,77.7663
2023-05-14T09:59:57.453Z,77.6237
2023-05-14T10:00:57.711Z,77.3939
2023-05-14T10:01:57.884Z,77.3542
2023-05-14T10:02:58.023Z,77.2511
2023-05-14T10:04:02.562Z,77.3391
2023-05-14T10:10:08.921Z,78.6358
2023-05-14T10:11:09.047Z,78.8983
2023-05-14T10:12:09.696Z,79.0518
2023-05-14T10:13:10.263Z,79.1806
2023-05-14T10:14:11.596Z,79.3166
2023-05-14T10:15:12.328Z,79.3849
2023-05-14T10:16:12.927Z,79.5194
2023-05-14T10:17:13.188Z,79.6658
2023-05-14T10:18:13.355Z,79.8499
2023-05-14T10:19:14.020Z,79.9671
2023-05-14T10:20:14.177Z,80.0165
2023-05-14T10:21:14.287Z,80.0315
2023-05-14T10:22:14.959Z,80.0570
2023-05-14T10:23:16.284Z,80.0700
2023-05-14T10:24:16.440Z,80.0777
2023-05-14T10:25:16.561Z,79.9385
2023-05-14T10:26:17.596Z,79.7841
2023-05-14T10:27:17.736Z,79.7581
2023-05-14T10:28:17.900Z,79.8081
2023-05-14T10:29:18.054Z,79.8287
2023-05-14T10:30:18.200Z,79.7811
2023-05-14T10:31:18.414Z,79.6451
2023-05-14T10:32:18.621Z,79.5222
2023-05-14T10:33:18.868Z,79.4023
2023-05-14T10:34:19.056Z,79.3348
2023-05-14T10:35:20.009Z,79.3352
2023-05-14T10:36:20.136Z,79.3564
2023-05-14T10:37:20.673Z,79.2755
2023-05-14T10:38:20.771Z,79.2907
2023-05-14T10:39:21.869Z,79.4091
2023-05-14T10:40:22.927Z,79.5803
2023-05-14T10:41:23.382Z,79.6164
2023-05-14T10:42:23.561Z,79.5861
2023-05-14T10:43:23.638Z,79.5820
2023-05-14T10:44:23.872Z,79.6433
2023-05-14T10:45:24.421Z,79.6945
2023-05-14T10:46:24.655Z,79.7356
2023-05-14T10:47:24.794Z,79.7511
2023-05-14T10:48:25.080Z,79.7818
2023-05-14T10:49:39.718Z,79.7063
2023-05-14T10:50:26.972Z,79.6332
2023-05-14T10:51:27.786Z,79.5797
2023-05-14T10:52:27.914Z,79.5474
2023-05-14T10:53:28.015Z,79.5357
2023-05-14T10:54:29.126Z,79.5053
2023-05-14T10:55:29.316Z,79.4666
2023-05-14T10:56:29.434Z,79.4236
2023-05-14T10:57:30.260Z,79.2983
2023-05-14T10:58:30.420Z,79.1159
2023-05-14T10:59:31.190Z,78.9338
2023-05-14T11:00:31.359Z,78.7973
2023-05-14T11:01:31.494Z,78.7160
2023-05-14T11:02:32.263Z,78.7327
2023-05-14T11:03:33.125Z,78.7330
2023-05-14T11:04:33.425Z,78.6225
2023-05-14T11:05:33.541Z,78.2930
2023-05-14T11:06:33.682Z,78.0168
2023-05-14T11:07:33.787Z,77.7663
2023-05-14T11:08:33.948Z,77.5292
2023-05-14T11:09:34.685Z,77.1665
2023-05-14T11:10:34.889Z,76.7717
2023-05-14T11:11:35.716Z,76.3843
2023-05-14T11:12:35.871Z,75.9606
2023-05-14T11:13:36.002Z,75.5917
2023-05-14T11:14:36.140Z,75.2977
2023-05-14T11:15:36.344Z,74.9735
2023-05-14T11:16:37.185Z,74.7937
2023-05-14T11:17:37.405Z,74.6228
2023-05-14T11:18:38.274Z,74.5006
2023-05-14T11:19:38.395Z,74.5242
2023-05-14T11:20:38.520Z,74.6126
2023-05-14T11:21:39.527Z,74.6502
2023-05-14T11:22:39.681Z,74.6356
2023-05-14T11:23:40.003Z,74.4694
2023-05-14T11:24:40.191Z,74.1978
2023-05-14T11:25:40.803Z,74.4614
2023-05-14T11:26:41.011Z,74.8787
2023-05-14T11:27:41.813Z,75.2094
2023-05-14T11:28:41.949Z,75.4103
2023-05-14T11:29:42.734Z,75.7042
2023-05-14T11:30:43.755Z,75.8755
2023-05-14T11:33:48.005Z,76.1243
2023-05-14T11:34:48.147Z,76.4834
2023-05-14T11:35:48.302Z,76.7563
2023-05-14T11:36:48.454Z,76.4706
2023-05-14T11:37:50.898Z,76.2970
2023-05-14T11:38:51.054Z,76.5806
2023-05-14T11:39:58.359Z,76.9717
2023-05-14T11:42:10.508Z,77.5800
2023-05-14T11:42:59.144Z,78.0183
2023-05-14T11:43:59.992Z,78.2646
2023-05-14T11:45:00.755Z,78.4358
2023-05-14T11:46:00.960Z,78.5607
2023-05-14T11:47:01.793Z,78.7650
2023-05-14T11:48:01.946Z,79.0272
2023-05-14T11:49:02.723Z,79.2686
2023-05-14T11:50:19.972Z,79.3358
2023-05-14T11:51:42.306Z,79.1163
2023-05-14T11:52:43.341Z,79.2352
2023-05-14T11:53:44.797Z,79.3551
2023-05-14T11:54:45.334Z,79.5072
2023-05-14T11:55:45.674Z,79.5977
2023-05-14T11:57:03.262Z,79.6338
2023-05-14T11:57:47.835Z,79.7135
2023-05-14T11:58:48.623Z,79.7553
2023-05-14T11:59:48.767Z,79.8236
2023-05-14T12:00:50.053Z,79.8633
2023-05-14T12:01:50.993Z,79.8399
2023-05-14T12:02:51.214Z,79.8439
2023-05-14T12:03:52.325Z,79.9305
2023-05-14T12:04:53.831Z,80.0707
2023-05-14T12:05:54.602Z,80.2154
2023-05-14T12:06:54.948Z,80.3814
2023-05-14T12:07:55.496Z,80.5483
2023-05-14T12:08:55.948Z,80.6624
2023-05-14T12:09:56.169Z,80.6813
2023-05-14T12:10:56.447Z,80.6220
2023-05-14T12:11:56.906Z,80.0551
2023-05-14T12:12:57.314Z,79.2756
2023-05-14T12:13:57.709Z,78.3084
2023-05-14T12:14:58.050Z,76.8372
2023-05-14T12:15:58.262Z,76.5493
2023-05-14T12:16:58.645Z,76.5793
2023-05-14T12:18:59.550Z,76.2979
2023-05-14T12:19:59.737Z,76.6085
2023-05-14T12:21:01.497Z,77.0825
2023-05-14T12:22:02.291Z,77.6649
2023-05-14T12:23:02.406Z,78.0747
2023-05-14T12:24:03.345Z,78.4215
2023-05-14T12:25:04.377Z,78.8464
2023-05-14T12:26:04.572Z,79.3000
2023-05-14T12:27:05.635Z,79.6570
2023-05-14T12:28:05.979Z,79.9799
2023-05-14T12:29:06.331Z,80.2285
2023-05-14T12:31:07.389Z,80.3062
2023-05-14T12:32:08.842Z,80.3795
2023-05-14T12:33:09.710Z,80.5295
2023-05-14T12:34:09.856Z,80.5827
2023-05-14T12:35:10.631Z,80.5849
2023-05-14T12:36:21.188Z,80.6543
2023-05-14T12:37:13.912Z,80.7893
2023-05-14T12:38:15.020Z,80.8908
2023-05-14T12:39:15.466Z,81.0639
2023-05-14T12:40:15.625Z,81.2852
2023-05-14T12:41:15.960Z,81.4990
2023-05-14T12:42:17.652Z,81.6798
2023-05-14T12:43:17.818Z,81.8704
2023-05-14T12:44:17.951Z,82.0351
2023-05-14T12:45:18.068Z,82.1892
2023-05-14T12:46:18.193Z,82.3373
2023-05-14T12:47:18.423Z,82.4713
2023-05-14T12:48:18.574Z,82.6410
2023-05-14T12:49:18.728Z,82.8541
2023-05-14T12:50:19.496Z,83.1321
2023-05-14T12:52:36.124Z,83.8754
2023-05-14T12:53:24.047Z,84.1756
2023-05-14T13:03:38.265Z,87.1954
2023-05-14T13:04:38.659Z,87.2126
2023-05-14T13:05:41.422Z,87.1939
2023-05-14T13:09:44.265Z,86.8399
2023-05-14T13:10:44.421Z,86.7271
2023-05-14T13:11:44.563Z,86.6112
2023-05-14T13:12:44.692Z,86.5198
2023-05-14T13:13:44.834Z,86.4404
2023-05-14T13:14:44.982Z,86.3798
2023-05-14T13:15:45.182Z,86.3301
2023-05-14T13:16:45.408Z,86.2793
2023-05-14T13:17:45.682Z,86.2111
2023-05-14T13:18:45.846Z,86.1451
2023-05-14T13:19:45.968Z,86.0707
2023-05-14T13:20:46.127Z,85.9892
2023-05-14T13:21:46.272Z,85.8913
2023-05-14T13:22:46.392Z,85.7696
2023-05-14T13:23:46.532Z,85.6423
2023-05-14T13:24:46.887Z,85.5338
2023-05-14T13:25:49.671Z,85.4289
2023-05-14T13:26:47.351Z,85.3260
2023-05-14T13:27:47.503Z,85.2430
2023-05-14T13:28:47.703Z,85.1746
2023-05-14T13:30:49.049Z,85.0497
2023-05-14T13:31:49.181Z,84.9741
2023-05-14T13:33:50.168Z,84.7556
2023-05-14T13:34:50.338Z,84.6179
2023-05-14T13:35:51.288Z,84.4536
2023-05-14T13:36:52.471Z,84.2853
2023-05-14T13:37:53.973Z,84.1246
2023-05-14T13:38:55.594Z,83.9641
2023-05-14T13:39:56.012Z,83.8029
2023-05-14T13:40:56.389Z,83.6418
2023-05-14T13:41:56.598Z,83.4833
2023-05-14T13:42:57.525Z,83.3310
2023-05-14T13:43:58.308Z,83.1677
2023-05-14T13:44:58.477Z,82.9917
2023-05-14T13:45:58.727Z,82.8126
2023-05-14T13:46:58.916Z,82.6500
2023-05-14T13:47:59.115Z,82.5145
2023-05-14T13:48:59.323Z,82.3792
2023-05-14T13:51:00.188Z,82.0985
2023-05-14T13:52:00.359Z,81.9494
2023-05-14T13:53:01.398Z,81.7934
2023-05-14T13:54:02.223Z,81.6333
2023-05-14T13:55:02.385Z,81.4524
2023-05-14T13:56:03.234Z,81.2451
2023-05-14T13:57:03.470Z,81.0024
2023-05-14T13:58:04.070Z,80.7978
2023-05-14T13:59:04.845Z,80.5808
2023-05-14T14:00:05.751Z,80.3214